Tionesta, Pennsylvania
Current Conditions -  °F | °C
As of 1:35 PM on Thursday 23 Oct 2014 (Local Time) from KFKL Reporting Station
Clear Clear  
Wind Chill: 57°   Ceiling: Unl
Heat Index: 57°   Visibility: 10mi
Dew Point: 37°   Wind: 9mph
Humidity: 48%   Direction: 350°N
Pressure: 30.1"   Gusts: 20mph
Location:  41.5°N, 79.46°W
Report Text: KFKL 231735Z 35008G17KT 340V040 10SM CLR 14/03 A3010 RMK AO1
Loading
Personal Weather Stations






























Interactive Weather Map
Tropical Storm Tracking
New forecast layout! Learn more

10-Day Weather Forecast

Advertisements
Track Severe Weather on mobile